Time;durP1;ratioP1;P1;durP2;ratioP2;P2;SDS_P1;SDS_P2;PMS_P1;PMS_P2;Temp;Humidity;BMP_temperature;BMP_pressure;BME280_temperature;BME280_humidity;BME280_pressure;Samples;Min_cycle;Max_cycle;Signal;HPM_P1;HPM_P2
2023/08/27 00:02:16;;;;;;;6.60;6.10;;;18.30;1.00;;;;;;5022469;28;20502;-77
2023/08/27 00:04:43;;;;;;;7.17;6.67;;;18.20;1.00;;;;;;5014216;28;20466;-77
2023/08/27 00:07:10;;;;;;;7.43;6.73;;;18.10;1.00;;;;;;5027198;28;20521;-77
2023/08/27 00:09:39;;;;;;;6.43;5.83;;;18.00;1.00;;;;;;5023141;28;20471;-76
2023/08/27 00:12:06;;;;;;;7.30;6.60;;;17.90;1.00;;;;;;5024108;28;20461;-77
2023/08/27 00:14:33;;;;;;;6.73;6.20;;;17.80;1.00;;;;;;5029284;28;20449;-76
2023/08/27 00:17:03;;;;;;;7.10;6.47;;;17.80;1.00;;;;;;5023838;28;20600;-78
2023/08/27 00:19:29;;;;;;;6.30;5.80;;;17.80;1.00;;;;;;5024236;28;20458;-76
2023/08/27 00:21:58;;;;;;;9.57;7.07;;;17.80;1.00;;;;;;5023287;28;20521;-76
2023/08/27 00:24:25;;;;;;;7.80;7.03;;;17.80;1.00;;;;;;5025693;28;20449;-76
2023/08/27 00:26:53;;;;;;;7.30;6.60;;;17.70;1.00;;;;;;5027073;28;20465;-76
2023/08/27 00:29:20;;;;;;;6.90;6.30;;;17.70;1.00;;;;;;5011342;28;20929;-77
2023/08/27 00:31:47;;;;;;;7.70;7.00;;;17.60;1.00;;;;;;5004148;28;20569;-76
2023/08/27 00:34:14;;;;;;;6.90;6.30;;;17.60;1.00;;;;;;5022059;28;20485;-76
2023/08/27 00:36:41;;;;;;;7.43;6.67;;;17.60;1.00;;;;;;5030792;28;20558;-77
2023/08/27 00:39:08;;;;;;;8.63;6.60;;;17.50;1.00;;;;;;5019295;28;20469;-76
2023/08/27 00:41:35;;;;;;;7.33;6.70;;;17.50;1.00;;;;;;5015498;28;20568;-75
2023/08/27 00:44:04;;;;;;;7.10;6.40;;;17.40;1.00;;;;;;5029342;28;20456;-76
2023/08/27 00:46:31;;;;;;;7.23;6.63;;;17.40;1.00;;;;;;5026923;28;20552;-77
2023/08/27 00:49:01;;;;;;;7.43;6.63;;;17.40;1.00;;;;;;5029157;28;20469;-77
2023/08/27 00:51:28;;;;;;;7.03;6.37;;;17.40;1.00;;;;;;5031228;28;20443;-76
2023/08/27 00:53:55;;;;;;;7.63;6.90;;;17.40;1.00;;;;;;5027821;28;20536;-77
2023/08/27 00:56:23;;;;;;;9.00;6.53;;;17.40;1.00;;;;;;5026898;28;20515;-79
2023/08/27 00:58:50;;;;;;;8.20;7.40;;;17.30;1.00;;;;;;5025849;28;20596;-77
2023/08/27 01:01:30;;;;;;;8.40;7.73;;;17.20;1.00;;;;;;5028694;28;21258;-78
2023/08/27 01:03:57;;;;;;;7.73;7.03;;;17.20;1.00;;;;;;5049868;22;20459;-72
2023/08/27 01:06:24;;;;;;;8.63;7.57;;;17.10;1.00;;;;;;5041467;28;20542;-74
2023/08/27 01:08:57;;;;;;;8.30;7.50;;;17.10;1.00;;;;;;5042260;28;20477;-73
2023/08/27 01:11:30;;;;;;;8.30;7.40;;;17.10;1.00;;;;;;5045071;28;20479;-75
2023/08/27 01:14:03;;;;;;;7.83;7.13;;;17.10;1.00;;;;;;5046057;28;20470;-74
2023/08/27 01:16:34;;;;;;;7.20;6.60;;;17.00;1.00;;;;;;5044281;28;20472;-73
2023/08/27 01:19:02;;;;;;;8.20;7.40;;;17.00;1.00;;;;;;5038931;28;21222;-73
2023/08/27 01:21:30;;;;;;;7.50;6.90;;;17.00;1.00;;;;;;5044399;28;20468;-75
2023/08/27 01:23:57;;;;;;;8.50;7.80;;;17.00;1.00;;;;;;5047309;28;20464;-75
2023/08/27 01:26:36;;;;;;;7.97;7.27;;;17.10;1.00;;;;;;5048270;28;21356;-73
2023/08/27 01:29:15;;;;;;;8.60;7.50;;;17.20;1.00;;;;;;5045228;28;20559;-74
2023/08/27 01:31:48;;;;;;;7.27;6.67;;;17.20;1.00;;;;;;5047845;28;20496;-76
2023/08/27 01:34:17;;;;;;;8.93;8.13;;;17.30;1.00;;;;;;5049889;28;20448;-75
2023/08/27 01:36:46;;;;;;;10.80;9.90;;;17.30;1.00;;;;;;5046852;28;20488;-73
2023/08/27 01:39:14;;;;;;;8.97;8.13;;;17.20;1.00;;;;;;5041557;28;20468;-73
2023/08/27 01:41:41;;;;;;;8.63;7.90;;;17.20;1.00;;;;;;5049191;28;20532;-74
2023/08/27 01:44:08;;;;;;;9.63;8.77;;;17.20;1.00;;;;;;5049303;28;20506;-74
2023/08/27 01:46:35;;;;;;;8.70;7.90;;;17.10;1.00;;;;;;5049409;28;20538;-75
2023/08/27 01:49:02;;;;;;;8.97;8.07;;;17.10;1.00;;;;;;5045097;28;20805;-75
2023/08/27 01:51:30;;;;;;;8.83;8.13;;;17.10;1.00;;;;;;5046561;28;20481;-74
2023/08/27 01:53:58;;;;;;;8.50;7.73;;;17.20;1.00;;;;;;5043632;28;20543;-75
2023/08/27 01:56:25;;;;;;;9.27;8.37;;;17.10;1.00;;;;;;5042407;28;20457;-74
2023/08/27 01:58:52;;;;;;;7.63;7.03;;;17.20;1.00;;;;;;5043947;28;20964;-74
2023/08/27 02:01:19;;;;;;;8.77;8.07;;;17.20;1.00;;;;;;5043369;28;20987;-74
2023/08/27 02:03:46;;;;;;;9.13;8.33;;;17.10;1.00;;;;;;5044432;28;20468;-74
2023/08/27 02:06:13;;;;;;;8.53;7.93;;;17.20;1.00;;;;;;5043976;28;20556;-74
2023/08/27 02:08:39;;;;;;;9.03;8.20;;;17.20;1.00;;;;;;5043396;28;20544;-75
2023/08/27 02:11:08;;;;;;;8.50;7.80;;;17.20;1.00;;;;;;5045108;28;21048;-75
2023/08/27 02:13:35;;;;;;;8.97;8.07;;;17.20;1.00;;;;;;5041821;28;20484;-75
2023/08/27 02:16:02;;;;;;;7.77;7.07;;;17.20;1.00;;;;;;5041258;28;20452;-74
2023/08/27 02:18:29;;;;;;;8.67;7.97;;;17.20;1.00;;;;;;5046531;28;20456;-73
2023/08/27 02:20:56;;;;;;;9.93;8.93;;;17.10;1.00;;;;;;5042612;28;20829;-74
2023/08/27 02:23:23;;;;;;;9.80;7.77;;;17.00;1.00;;;;;;5044269;28;20452;-73
2023/08/27 02:25:50;;;;;;;9.13;8.33;;;17.00;1.00;;;;;;5041166;28;20556;-73
2023/08/27 02:28:21;;;;;;;11.57;9.63;;;17.00;1.00;;;;;;5045307;28;20480;-73
2023/08/27 02:30:52;;;;;;;8.07;7.37;;;17.00;1.00;;;;;;5041384;28;20527;-75
2023/08/27 02:33:21;;;;;;;8.40;7.60;;;17.00;1.00;;;;;;5040575;28;20944;-74
2023/08/27 02:35:48;;;;;;;8.00;7.30;;;17.00;1.00;;;;;;5042353;28;20464;-75
2023/08/27 02:38:15;;;;;;;7.77;7.07;;;17.00;1.00;;;;;;5041217;28;20888;-75
2023/08/27 02:40:42;;;;;;;7.73;7.13;;;17.00;1.00;;;;;;5042111;28;20870;-74
2023/08/27 02:43:09;;;;;;;8.43;7.03;;;17.00;1.00;;;;;;5043566;28;20471;-75
2023/08/27 02:45:39;;;;;;;7.60;7.10;;;17.00;1.00;;;;;;5040725;28;21033;-78
2023/08/27 02:48:06;;;;;;;8.03;7.20;;;17.00;1.00;;;;;;5036684;28;21133;-75
2023/08/27 02:50:33;;;;;;;7.60;7.00;;;16.90;1.00;;;;;;5044107;28;20559;-74
2023/08/27 02:52:59;;;;;;;8.90;8.10;;;17.00;1.00;;;;;;5041694;28;20571;-74
2023/08/27 02:55:28;;;;;;;9.77;8.43;;;17.00;1.00;;;;;;5043140;28;20475;-75
2023/08/27 02:57:55;;;;;;;9.27;8.37;;;17.00;1.00;;;;;;5043351;28;21026;-74
2023/08/27 03:00:21;;;;;;;9.53;8.60;;;17.00;1.00;;;;;;5042755;28;20480;-75
2023/08/27 03:02:50;;;;;;;8.50;7.80;;;17.00;1.00;;;;;;5040626;28;20632;-74
2023/08/27 03:05:17;;;;;;;8.67;7.90;;;17.00;1.00;;;;;;5043049;28;20535;-75
2023/08/27 03:07:44;;;;;;;11.40;8.53;;;17.00;1.00;;;;;;5039698;28;20457;-75
2023/08/27 03:10:11;;;;;;;9.43;8.37;;;17.00;1.00;;;;;;5040949;28;20503;-73
2023/08/27 03:12:38;;;;;;;9.00;8.10;;;17.00;1.00;;;;;;5043308;28;20591;-75
2023/08/27 03:15:06;;;;;;;9.13;8.33;;;16.90;1.00;;;;;;5043122;28;20456;-75
2023/08/27 03:17:32;;;;;;;8.53;7.93;;;16.90;1.00;;;;;;5040651;28;20477;-75
2023/08/27 03:20:01;;;;;;;8.50;7.80;;;16.90;1.00;;;;;;5042253;28;20482;-74
2023/08/27 03:22:28;;;;;;;8.03;7.33;;;16.90;1.00;;;;;;5041940;28;20802;-75
2023/08/27 03:25:00;;;;;;;9.17;8.37;;;16.80;1.00;;;;;;5042589;28;20468;-73
2023/08/27 03:27:26;;;;;;;9.80;8.00;;;16.80;1.00;;;;;;5043679;28;20566;-75
2023/08/27 03:29:53;;;;;;;14.90;13.20;;;16.70;1.00;;;;;;5043783;28;21010;-74
2023/08/27 03:32:20;;;;;;;9.07;8.27;;;16.70;1.00;;;;;;5042942;28;20546;-75
2023/08/27 03:34:48;;;;;;;8.60;7.63;;;16.60;1.00;;;;;;5042893;28;21519;-74
2023/08/27 03:37:16;;;;;;;11.60;7.60;;;16.60;1.00;;;;;;5042870;28;20457;-75
2023/08/27 03:39:43;;;;;;;9.03;8.00;;;16.60;1.00;;;;;;5040459;28;20567;-74
2023/08/27 03:42:10;;;;;;;8.77;7.97;;;16.60;1.00;;;;;;5042873;28;20457;-75
2023/08/27 03:44:37;;;;;;;8.97;8.27;;;16.60;1.00;;;;;;5044145;28;20894;-75
2023/08/27 03:47:04;;;;;;;8.20;7.50;;;16.50;1.00;;;;;;5045220;28;20485;-74
2023/08/27 03:49:32;;;;;;;8.50;7.80;;;16.50;1.00;;;;;;5028496;28;21018;-74
2023/08/27 03:51:59;;;;;;;9.17;8.27;;;16.50;1.00;;;;;;5043417;28;20522;-74
2023/08/27 03:54:27;;;;;;;9.43;8.70;;;16.50;1.00;;;;;;5042519;28;20460;-75
2023/08/27 03:56:54;;;;;;;10.63;9.73;;;16.50;1.00;;;;;;5039606;28;20449;-75
2023/08/27 03:59:24;;;;;;;10.47;9.20;;;16.50;1.00;;;;;;5043225;28;20840;-75
2023/08/27 04:01:52;;;;;;;10.20;9.30;;;16.50;1.00;;;;;;5039250;28;20457;-75
2023/08/27 04:04:19;;;;;;;11.97;9.20;;;16.50;1.00;;;;;;5034556;28;20452;-75
2023/08/27 04:06:46;;;;;;;10.57;9.80;;;16.50;1.00;;;;;;5039799;28;20480;-75
2023/08/27 04:09:13;;;;;;;10.00;9.20;;;16.50;1.00;;;;;;5043834;28;20473;-74
2023/08/27 04:11:42;;;;;;;9.73;8.80;;;16.50;1.00;;;;;;5042678;28;20455;-74
2023/08/27 04:14:08;;;;;;;10.53;9.63;;;16.50;1.00;;;;;;5041961;28;20458;-74
2023/08/27 04:16:37;;;;;;;9.90;9.00;;;16.50;1.00;;;;;;5042864;28;20539;-75
2023/08/27 04:19:04;;;;;;;10.33;9.43;;;16.60;1.00;;;;;;5040695;28;20468;-74
2023/08/27 04:21:34;;;;;;;9.87;8.93;;;16.60;1.00;;;;;;5041050;28;20483;-75
2023/08/27 04:24:03;;;;;;;10.90;9.90;;;16.60;1.00;;;;;;5041804;28;20519;-72
2023/08/27 04:26:30;;;;;;;13.73;10.03;;;16.60;1.00;;;;;;5042898;28;20558;-74
2023/08/27 04:28:58;;;;;;;9.67;8.97;;;16.60;1.00;;;;;;5040469;28;20577;-74
2023/08/27 04:31:25;;;;;;;10.23;8.90;;;16.60;1.00;;;;;;5037966;28;20551;-74
2023/08/27 04:33:58;;;;;;;9.60;8.70;;;16.60;1.00;;;;;;5037296;28;20523;-74
2023/08/27 04:36:25;;;;;;;9.67;8.87;;;16.70;1.00;;;;;;5042276;28;20445;-74
2023/08/27 04:38:52;;;;;;;10.50;9.50;;;16.60;1.00;;;;;;5040512;28;20960;-74
2023/08/27 04:41:19;;;;;;;10.07;9.20;;;16.60;1.00;;;;;;5041689;28;20490;-73
2023/08/27 04:43:46;;;;;;;11.30;9.20;;;16.70;1.00;;;;;;5040130;28;20570;-74
2023/08/27 04:46:14;;;;;;;10.17;9.27;;;16.70;1.00;;;;;;5040203;28;20496;-75
2023/08/27 04:48:41;;;;;;;9.73;8.83;;;16.70;1.00;;;;;;5037368;28;20472;-74
2023/08/27 04:51:08;;;;;;;10.30;9.30;;;16.70;1.00;;;;;;5041451;28;20491;-73
2023/08/27 04:53:35;;;;;;;9.57;8.67;;;16.80;1.00;;;;;;5039853;28;20468;-74
2023/08/27 04:56:03;;;;;;;8.77;7.97;;;16.80;1.00;;;;;;5041950;28;20452;-73
2023/08/27 04:58:30;;;;;;;9.60;8.80;;;16.90;1.00;;;;;;5044213;28;20477;-76
2023/08/27 05:00:56;;;;;;;9.70;8.90;;;17.00;1.00;;;;;;5037339;28;21444;-74
2023/08/27 05:03:25;;;;;;;9.77;8.87;;;17.00;1.00;;;;;;5042547;28;20519;-72
2023/08/27 05:05:53;;;;;;;10.17;8.53;;;17.10;1.00;;;;;;5041849;28;20472;-74
2023/08/27 05:08:20;;;;;;;9.07;8.37;;;17.10;1.00;;;;;;5041294;28;21031;-74
2023/08/27 05:10:47;;;;;;;9.97;9.07;;;17.10;1.00;;;;;;5039798;28;20463;-74
2023/08/27 05:13:14;;;;;;;8.47;7.63;;;17.10;1.00;;;;;;5037258;28;20449;-74
2023/08/27 05:15:41;;;;;;;8.63;7.93;;;17.20;1.00;;;;;;5038653;28;20555;-74
2023/08/27 05:18:09;;;;;;;8.83;8.03;;;17.20;1.00;;;;;;5040102;28;20558;-74
2023/08/27 05:20:37;;;;;;;9.67;8.90;;;17.30;1.00;;;;;;5041956;28;20519;-73
2023/08/27 05:23:04;;;;;;;13.60;12.30;;;17.40;1.00;;;;;;5043708;28;20487;-73
2023/08/27 05:25:31;;;;;;;8.90;8.10;;;17.40;1.00;;;;;;5043089;28;20453;-73
2023/08/27 05:27:58;;;;;;;10.07;9.07;;;17.50;1.00;;;;;;5043679;28;20921;-73
2023/08/27 05:30:25;;;;;;;9.70;8.80;;;17.60;1.00;;;;;;5044213;28;20467;-75
2023/08/27 05:32:53;;;;;;;8.83;8.00;;;17.70;1.00;;;;;;5043441;28;20574;-73
2023/08/27 05:35:20;;;;;;;8.60;7.53;;;17.70;1.00;;;;;;5038533;28;20471;-73
2023/08/27 05:37:48;;;;;;;9.30;8.37;;;17.80;1.00;;;;;;5043038;28;20564;-74
2023/08/27 05:40:15;;;;;;;9.97;8.67;;;17.80;1.00;;;;;;5039080;28;20473;-74
2023/08/27 05:42:42;;;;;;;8.60;7.90;;;17.90;1.00;;;;;;5043519;28;20468;-73
2023/08/27 05:45:10;;;;;;;8.07;7.33;;;17.90;1.00;;;;;;5043819;28;20551;-75
2023/08/27 05:47:37;;;;;;;7.23;6.73;;;18.00;1.00;;;;;;5044539;28;20497;-72
2023/08/27 05:50:04;;;;;;;7.90;7.30;;;18.10;1.00;;;;;;5044310;28;20501;-71
2023/08/27 05:52:31;;;;;;;8.33;7.53;;;18.20;1.00;;;;;;5042197;28;20457;-72
2023/08/27 05:55:00;;;;;;;7.83;7.23;;;18.30;1.00;;;;;;5044076;28;20565;-72
2023/08/27 05:57:26;;;;;;;7.60;7.00;;;18.40;1.00;;;;;;5039478;28;21064;-71
2023/08/27 05:59:53;;;;;;;8.70;8.00;;;18.40;1.00;;;;;;5041743;28;20486;-73
2023/08/27 06:02:20;;;;;;;7.23;6.63;;;18.40;1.00;;;;;;5043510;28;20514;-72
2023/08/27 06:04:47;;;;;;;10.60;8.10;;;18.50;1.00;;;;;;5042932;28;20629;-73
2023/08/27 06:07:14;;;;;;;8.07;7.40;;;18.60;1.00;;;;;;5042634;28;20476;-71
2023/08/27 06:09:41;;;;;;;8.30;7.13;;;18.60;1.00;;;;;;5043879;28;20460;-72
2023/08/27 06:12:09;;;;;;;8.00;7.20;;;18.70;1.00;;;;;;5040879;28;20483;-72
2023/08/27 06:14:36;;;;;;;8.27;6.90;;;18.70;1.00;;;;;;5044308;28;20478;-71
2023/08/27 06:17:04;;;;;;;7.57;6.87;;;18.70;1.00;;;;;;5041127;28;20473;-73
2023/08/27 06:19:31;;;;;;;7.50;6.80;;;18.80;1.00;;;;;;5045083;28;20505;-72
2023/08/27 06:21:57;;;;;;;7.83;6.87;;;18.80;1.00;;;;;;5043034;28;20546;-73
2023/08/27 06:24:24;;;;;;;8.33;7.70;;;18.90;1.00;;;;;;5042058;28;20552;-71
2023/08/27 06:26:51;;;;;;;8.43;7.20;;;19.00;1.00;;;;;;5036881;28;20487;-72
2023/08/27 06:29:20;;;;;;;7.60;6.90;;;19.10;1.00;;;;;;5045235;28;21173;-71
2023/08/27 06:31:47;;;;;;;8.27;7.50;;;19.20;1.00;;;;;;5043587;28;20558;-72
2023/08/27 06:34:13;;;;;;;7.27;6.70;;;19.30;1.00;;;;;;5044596;28;20447;-71
2023/08/27 06:36:42;;;;;;;7.67;6.93;;;19.30;1.00;;;;;;5039635;28;20536;-70
2023/08/27 06:39:09;;;;;;;7.60;6.90;;;19.30;1.00;;;;;;5042144;28;20659;-72
2023/08/27 06:41:36;;;;;;;6.60;6.00;;;19.30;1.00;;;;;;5049030;28;20546;-71
2023/08/27 06:44:03;;;;;;;7.17;6.57;;;19.40;1.00;;;;;;5041273;28;20943;-71
2023/08/27 06:46:31;;;;;;;7.43;6.60;;;19.50;1.00;;;;;;5043862;28;20471;-72
2023/08/27 06:48:58;;;;;;;7.27;6.63;;;19.50;1.00;;;;;;5048720;28;20667;-71
2023/08/27 06:51:27;;;;;;;6.50;5.93;;;19.60;1.00;;;;;;5047127;28;20518;-72
2023/08/27 06:53:54;;;;;;;7.40;6.70;;;19.60;1.00;;;;;;5046077;28;20816;-71
2023/08/27 06:56:21;;;;;;;9.23;6.73;;;19.70;1.00;;;;;;5048074;28;20934;-70
2023/08/27 06:58:49;;;;;;;6.90;6.23;;;20.00;1.00;;;;;;5045246;28;20474;-71
2023/08/27 07:01:16;;;;;;;7.43;6.73;;;20.10;1.00;;;;;;5044467;28;20566;-72
2023/08/27 07:03:47;;;;;;;6.00;5.50;;;20.20;1.00;;;;;;5040089;28;20538;-71
2023/08/27 07:06:14;;;;;;;8.60;6.43;;;20.10;1.00;;;;;;5043509;28;20496;-72
2023/08/27 07:08:42;;;;;;;6.37;5.77;;;20.10;1.00;;;;;;5049375;28;20452;-71
2023/08/27 07:11:08;;;;;;;6.10;5.23;;;20.10;1.00;;;;;;5050187;28;20457;-72
2023/08/27 07:13:35;;;;;;;6.40;5.70;;;20.10;1.00;;;;;;5047721;28;20544;-73
2023/08/27 07:16:03;;;;;;;6.43;5.93;;;20.10;1.00;;;;;;5045888;28;20460;-71
2023/08/27 07:18:31;;;;;;;5.43;4.93;;;20.10;1.00;;;;;;5044193;28;20554;-70
2023/08/27 07:20:59;;;;;;;6.30;5.70;;;20.10;1.00;;;;;;5041832;28;20478;-73
2023/08/27 07:23:26;;;;;;;6.23;5.63;;;20.30;1.00;;;;;;5044717;28;21023;-71
2023/08/27 07:25:53;;;;;;;6.50;5.90;;;20.40;1.00;;;;;;5041154;28;20465;-71
2023/08/27 07:28:20;;;;;;;7.13;6.30;;;20.40;1.00;;;;;;5038094;28;21011;-73
2023/08/27 07:30:49;;;;;;;6.30;5.10;;;20.50;1.00;;;;;;5042276;28;20465;-73
2023/08/27 07:33:16;;;;;;;6.30;5.73;;;20.70;1.00;;;;;;5041342;28;20942;-72
2023/08/27 07:35:44;;;;;;;10.33;6.60;;;20.80;1.00;;;;;;5043286;28;20943;-71
2023/08/27 07:38:12;;;;;;;5.63;5.13;;;20.90;1.00;;;;;;5037783;28;20445;-71
2023/08/27 07:40:39;;;;;;;8.83;5.77;;;21.00;1.00;;;;;;5026623;28;20560;-74
2023/08/27 07:43:06;;;;;;;6.30;5.27;;;21.10;1.00;;;;;;5022658;28;20481;-73
2023/08/27 07:45:33;;;;;;;6.30;5.80;;;21.30;1.00;;;;;;5034629;28;20989;-72
2023/08/27 07:48:00;;;;;;;5.90;5.50;;;21.10;1.00;;;;;;5042589;28;20551;-72
2023/08/27 07:50:28;;;;;;;7.40;6.80;;;21.10;1.00;;;;;;5045468;28;20936;-72
2023/08/27 07:52:54;;;;;;;6.70;6.00;;;21.20;1.00;;;;;;5042075;28;21623;-71
2023/08/27 07:55:24;;;;;;;5.40;4.90;;;21.60;1.00;;;;;;5048535;28;20567;-72
2023/08/27 07:57:51;;;;;;;4.93;4.00;;;21.70;1.00;;;;;;5048378;28;20538;-71
2023/08/27 08:00:21;;;;;;;6.50;4.80;;;21.40;1.00;;;;;;5043180;28;21036;-74
2023/08/27 08:02:48;;;;;;;7.00;4.60;;;21.40;1.00;;;;;;5044658;28;20464;-71
2023/08/27 08:05:15;;;;;;;4.87;4.07;;;21.80;1.00;;;;;;5036469;28;20474;-72
2023/08/27 08:07:42;;;;;;;5.23;3.77;;;22.00;1.00;;;;;;5044944;28;20479;-71
2023/08/27 08:10:09;;;;;;;4.00;3.60;;;22.20;1.00;;;;;;5036702;28;20463;-72
2023/08/27 08:12:37;;;;;;;6.47;4.03;;;22.40;1.00;;;;;;5047992;28;20497;-71
2023/08/27 08:15:05;;;;;;;4.23;3.83;;;22.60;1.00;;;;;;5048473;28;20522;-72
2023/08/27 08:17:32;;;;;;;4.03;3.33;;;22.80;1.00;;;;;;5043066;28;20457;-73
2023/08/27 08:19:59;;;;;;;4.80;4.40;;;23.00;1.00;;;;;;5043777;28;20457;-73
2023/08/27 08:22:26;;;;;;;3.70;3.27;;;23.20;1.00;;;;;;5042239;28;20466;-72
2023/08/27 08:24:53;;;;;;;5.30;3.67;;;23.40;1.00;;;;;;5045239;28;20980;-73
2023/08/27 08:27:20;;;;;;;4.37;3.37;;;23.50;1.00;;;;;;5046277;28;20527;-74
2023/08/27 08:29:48;;;;;;;4.63;3.23;;;23.40;1.00;;;;;;5045219;28;20982;-72
2023/08/27 08:32:15;;;;;;;3.63;3.33;;;23.40;1.00;;;;;;5046458;28;20489;-73
2023/08/27 08:34:42;;;;;;;3.50;3.20;;;23.30;1.00;;;;;;5046007;28;20555;-72
2023/08/27 08:37:09;;;;;;;3.53;3.20;;;23.30;1.00;;;;;;5046294;28;20494;-72
2023/08/27 08:39:36;;;;;;;3.80;3.27;;;23.40;1.00;;;;;;5046143;28;20475;-73
2023/08/27 08:42:13;;;;;;;4.37;2.80;;;23.50;1.00;;;;;;5044838;28;20543;-72
2023/08/27 08:44:46;;;;;;;3.40;3.10;;;23.40;1.00;;;;;;5046603;28;20457;-75
2023/08/27 08:47:16;;;;;;;4.03;3.40;;;23.20;1.00;;;;;;5045983;28;20479;-72
2023/08/27 08:49:46;;;;;;;4.93;3.00;;;23.10;1.00;;;;;;5049933;28;20502;-74
2023/08/27 08:52:18;;;;;;;3.23;2.80;;;22.90;1.00;;;;;;5049225;28;20479;-73
2023/08/27 08:54:48;;;;;;;7.47;4.10;;;22.80;1.00;;;;;;5044780;28;20538;-73
2023/08/27 08:57:16;;;;;;;4.80;3.30;;;22.60;1.00;;;;;;5050050;28;20963;-74
2023/08/27 08:59:44;;;;;;;3.60;2.90;;;22.70;1.00;;;;;;5049811;28;20499;-73
2023/08/27 09:02:14;;;;;;;3.43;2.83;;;22.80;1.00;;;;;;5045248;28;20445;-75
2023/08/27 09:04:42;;;;;;;6.80;3.20;;;23.10;1.00;;;;;;5048991;28;20472;-72
2023/08/27 09:07:13;;;;;;;4.20;2.97;;;23.10;1.00;;;;;;5050402;28;20452;-73
2023/08/27 09:09:41;;;;;;;7.40;6.70;;;23.20;1.00;;;;;;5046171;28;20552;-75
2023/08/27 09:12:09;;;;;;;4.53;3.00;;;23.20;1.00;;;;;;5048921;28;20456;-72
2023/08/27 09:14:37;;;;;;;3.07;2.70;;;23.20;1.00;;;;;;5045764;28;20462;-73
2023/08/27 09:17:05;;;;;;;4.10;3.00;;;23.20;1.00;;;;;;5048556;28;20460;-72
2023/08/27 09:19:37;;;;;;;4.30;2.83;;;23.10;1.00;;;;;;5043757;28;20555;-73
2023/08/27 09:22:04;;;;;;;3.83;2.80;;;23.00;1.00;;;;;;5044841;28;20909;-74
2023/08/27 09:24:31;;;;;;;3.93;3.23;;;22.80;1.00;;;;;;5047705;28;20551;-72
2023/08/27 09:26:58;;;;;;;2.90;2.70;;;22.70;1.00;;;;;;5047037;28;20499;-73
2023/08/27 09:29:27;;;;;;;4.70;3.33;;;22.60;1.00;;;;;;5050475;28;20667;-72
2023/08/27 09:31:57;;;;;;;3.70;2.97;;;22.70;1.00;;;;;;5045930;28;20471;-72
2023/08/27 09:34:25;;;;;;;3.43;2.67;;;22.80;1.00;;;;;;5049154;28;20528;-71
2023/08/27 09:36:53;;;;;;;2.53;2.30;;;22.90;1.00;;;;;;5045764;28;20469;-71
2023/08/27 09:39:20;;;;;;;5.83;3.27;;;22.90;1.00;;;;;;5047696;28;20933;-71
2023/08/27 09:41:48;;;;;;;3.13;2.67;;;22.80;1.00;;;;;;5044129;28;20468;-71
2023/08/27 09:44:16;;;;;;;3.70;3.13;;;22.80;1.00;;;;;;5051218;28;20492;-71
2023/08/27 09:46:43;;;;;;;3.50;3.20;;;22.70;1.00;;;;;;5049993;28;20847;-72
2023/08/27 09:49:10;;;;;;;3.53;3.20;;;22.80;1.00;;;;;;5045958;28;20546;-70
2023/08/27 09:51:38;;;;;;;3.60;2.70;;;22.80;1.00;;;;;;5044337;28;20535;-71
2023/08/27 09:54:15;;;;;;;3.50;2.80;;;22.80;1.00;;;;;;5043422;28;20484;-71
2023/08/27 09:56:46;;;;;;;4.10;2.87;;;22.80;1.00;;;;;;5045315;28;21374;-73
2023/08/27 09:59:15;;;;;;;2.87;2.67;;;22.80;1.00;;;;;;5048236;28;20454;-72
2023/08/27 10:01:46;;;;;;;2.70;2.50;;;22.90;1.00;;;;;;5046015;28;20488;-72
2023/08/27 10:04:13;;;;;;;2.97;2.67;;;23.00;1.00;;;;;;5043622;28;20461;-73
2023/08/27 10:06:40;;;;;;;4.53;2.90;;;23.30;1.00;;;;;;5048373;28;20544;-70
2023/08/27 10:09:07;;;;;;;5.17;3.47;;;23.50;1.00;;;;;;5030914;28;20545;-71
2023/08/27 10:11:36;;;;;;;2.97;2.60;;;23.80;1.00;;;;;;5047473;28;20455;-71
2023/08/27 10:14:04;;;;;;;3.20;2.90;;;23.70;1.00;;;;;;5040879;28;20456;-71
2023/08/27 10:16:34;;;;;;;3.10;2.80;;;23.70;1.00;;;;;;5049198;28;20947;-72
2023/08/27 10:19:02;;;;;;;3.77;3.40;;;23.70;1.00;;;;;;5047846;28;20970;-71
2023/08/27 10:21:30;;;;;;;5.30;2.87;;;23.80;1.00;;;;;;5048317;28;20884;-72
2023/08/27 10:23:58;;;;;;;3.00;2.80;;;24.00;1.00;;;;;;5047110;28;20478;-71
2023/08/27 10:26:25;;;;;;;3.80;3.13;;;24.40;1.00;;;;;;5047572;28;20458;-75
2023/08/27 10:28:54;;;;;;;2.70;2.50;;;24.60;1.00;;;;;;5043878;28;20476;-74
2023/08/27 10:31:21;;;;;;;4.07;2.73;;;24.70;1.00;;;;;;5045779;28;20473;-74
2023/08/27 10:33:48;;;;;;;6.00;3.40;;;24.70;1.00;;;;;;5039904;28;21008;-74
2023/08/27 10:36:21;;;;;;;4.10;3.13;;;24.30;1.00;;;;;;5042371;28;20571;-73
2023/08/27 10:38:49;;;;;;;3.80;3.40;;;24.20;1.00;;;;;;5041252;28;20544;-74
2023/08/27 10:41:18;;;;;;;3.23;2.77;;;23.80;1.00;;;;;;5043196;28;23037;-76
2023/08/27 10:43:45;;;;;;;3.90;3.60;;;23.60;1.00;;;;;;5038282;28;20516;-73
2023/08/27 10:46:16;;;;;;;3.10;2.80;;;23.90;1.00;;;;;;5039575;28;20490;-73
2023/08/27 10:48:49;;;;;;;3.23;2.93;;;24.20;1.00;;;;;;5036406;28;20456;-75
2023/08/27 10:51:18;;;;;;;2.80;2.50;;;24.40;1.00;;;;;;5040556;28;20466;-74
2023/08/27 10:53:56;;;;;;;3.30;2.83;;;24.40;1.00;;;;;;5043635;28;20880;-75
2023/08/27 10:56:28;;;;;;;3.20;3.00;;;24.20;1.00;;;;;;5039946;28;20449;-74
2023/08/27 10:58:58;;;;;;;3.20;2.90;;;24.00;1.00;;;;;;5041883;28;20492;-74
2023/08/27 11:01:27;;;;;;;3.10;2.80;;;23.60;1.00;;;;;;5048558;28;20479;-73
2023/08/27 11:03:58;;;;;;;4.23;3.40;;;23.30;1.00;;;;;;5038916;28;20897;-74
2023/08/27 11:06:50;;;;;;;8.80;7.90;;;23.30;1.00;;;;;;5042744;28;21004;-74
2023/08/27 11:09:23;;;;;;;3.10;2.80;;;23.60;1.00;;;;;;5022346;28;20454;-75
2023/08/27 11:11:52;;;;;;;3.60;3.30;;;24.20;1.00;;;;;;5037947;28;20966;-73
2023/08/27 11:14:21;;;;;;;2.87;2.57;;;24.80;1.00;;;;;;5045685;28;20479;-74
2023/08/27 11:16:54;;;;;;;4.07;2.50;;;25.20;1.00;;;;;;5037956;28;20473;-73
2023/08/27 11:19:30;;;;;;;3.10;2.80;;;25.10;1.00;;;;;;5037746;28;20474;-73
2023/08/27 11:22:09;;;;;;;3.60;3.03;;;24.80;1.00;;;;;;5040378;28;20455;-74
2023/08/27 11:24:42;;;;;;;3.53;3.20;;;24.40;1.00;;;;;;5045874;28;20976;-75
2023/08/27 11:27:10;;;;;;;3.97;2.90;;;24.10;1.00;;;;;;5041945;28;20536;-74
2023/08/27 11:29:40;;;;;;;3.17;2.87;;;24.00;1.00;;;;;;5043844;28;20910;-74
2023/08/27 11:32:09;;;;;;;6.57;3.50;;;23.80;1.00;;;;;;5046244;28;20444;-74
2023/08/27 11:34:37;;;;;;;3.07;2.60;;;23.50;1.00;;;;;;5042527;28;20494;-75
2023/08/27 11:37:05;;;;;;;3.53;3.23;;;23.30;1.00;;;;;;5037828;28;20838;-74
2023/08/27 11:39:33;;;;;;;6.60;3.47;;;23.30;1.00;;;;;;5040658;28;20972;-73
2023/08/27 11:42:00;;;;;;;3.80;3.07;;;23.40;1.00;;;;;;5041517;28;20941;-73
2023/08/27 11:44:27;;;;;;;3.23;2.70;;;23.50;1.00;;;;;;5038536;28;21102;-73
2023/08/27 11:47:04;;;;;;;5.13;3.90;;;23.70;1.00;;;;;;5040378;28;21294;-73
2023/08/27 11:49:35;;;;;;;3.90;3.30;;;23.70;1.00;;;;;;5037155;28;20519;-73
2023/08/27 11:52:03;;;;;;;4.40;3.20;;;23.60;1.00;;;;;;5044819;28;20469;-73
2023/08/27 11:54:34;;;;;;;4.70;3.97;;;23.60;1.00;;;;;;5046143;28;20557;-73
2023/08/27 11:57:02;;;;;;;4.27;3.97;;;23.60;1.00;;;;;;5044325;28;20516;-73
2023/08/27 11:59:30;;;;;;;4.10;3.67;;;23.40;1.00;;;;;;5046177;28;20473;-74
2023/08/27 12:01:58;;;;;;;4.20;3.80;;;23.30;1.00;;;;;;5043854;28;20533;-73
2023/08/27 12:04:26;;;;;;;4.53;4.10;;;23.20;1.00;;;;;;5044154;28;20491;-73
2023/08/27 12:06:57;;;;;;;4.27;3.97;;;23.30;1.00;;;;;;5042292;28;20458;-72
2023/08/27 12:09:26;;;;;;;5.23;4.60;;;23.20;1.00;;;;;;5037988;28;20489;-74
2023/08/27 12:11:53;;;;;;;8.10;7.33;;;23.30;1.00;;;;;;5041927;28;20501;-72
2023/08/27 12:14:25;;;;;;;4.43;3.43;;;23.30;1.00;;;;;;5046883;28;20538;-73
2023/08/27 12:16:52;;;;;;;3.37;3.07;;;23.50;1.00;;;;;;5042304;28;20964;-74
2023/08/27 12:19:21;;;;;;;3.77;3.23;;;23.70;1.00;;;;;;5040161;28;20494;-73
2023/08/27 12:21:49;;;;;;;3.10;2.80;;;24.00;1.00;;;;;;5041574;28;20599;-73
2023/08/27 12:24:34;;;;;;;3.80;3.07;;;24.10;1.00;;;;;;5046227;28;20504;-73
2023/08/27 12:27:03;;;;;;;2.80;2.50;;;23.70;1.00;;;;;;5045221;28;20539;-73
2023/08/27 12:29:31;;;;;;;3.00;2.37;;;23.70;1.00;;;;;;5041993;28;20992;-74
2023/08/27 12:32:08;;;;;;;2.83;2.53;;;23.70;1.00;;;;;;5042659;28;21057;-74
2023/08/27 12:34:36;;;;;;;3.03;2.63;;;23.60;1.00;;;;;;5045305;28;20502;-73
2023/08/27 12:37:04;;;;;;;3.33;3.00;;;23.60;1.00;;;;;;5044482;28;20452;-74
2023/08/27 12:39:32;;;;;;;4.37;3.47;;;23.60;1.00;;;;;;5041535;28;20472;-74
2023/08/27 12:42:00;;;;;;;3.90;3.60;;;23.60;1.00;;;;;;5037608;28;20468;-74
2023/08/27 12:44:27;;;;;;;5.50;2.80;;;23.50;1.00;;;;;;5041537;28;20468;-74
2023/08/27 12:46:57;;;;;;;3.10;2.80;;;23.40;1.00;;;;;;5043294;28;20536;-72
2023/08/27 12:49:24;;;;;;;2.67;2.47;;;23.30;1.00;;;;;;5046967;28;20529;-75
2023/08/27 12:51:51;;;;;;;3.37;2.80;;;23.20;1.00;;;;;;5045364;28;20465;-74
2023/08/27 12:54:18;;;;;;;2.97;2.00;;;23.20;1.00;;;;;;5045182;28;20538;-74
2023/08/27 12:56:47;;;;;;;2.97;2.60;;;23.10;1.00;;;;;;5044952;28;20496;-73
2023/08/27 12:59:15;;;;;;;2.50;2.10;;;22.90;1.00;;;;;;5045412;28;20468;-74
2023/08/27 13:01:42;;;;;;;4.33;2.60;;;22.80;1.00;;;;;;5039821;28;20557;-76